Time;durP1;ratioP1;P1;durP2;ratioP2;P2;SDS_P1;SDS_P2;PMS_P1;PMS_P2;Temp;Humidity;BMP_temperature;BMP_pressure;BME280_temperature;BME280_humidity;BME280_pressure;Samples;Min_cycle;Max_cycle;Signal;HPM_P1;HPM_P2
2024/01/12 06:44:09;;;;;;;11.85;6.50;;;;;;;;;;10581855;27;20405;-84
2024/01/12 06:49:10;;;;;;;9.98;5.97;;;;;;;;;;10565195;28;20037;-83
2024/01/12 07:11:01;;;;;;;;;;;;;;;;;;10586478;27;20052;-81
2024/01/12 07:16:14;;;;;;;10.95;7.70;;;;;;;;;;10566749;28;20256;-81
2024/01/12 07:27:42;;;;;;;9.75;6.68;;;;;;;;;;10584426;28;20035;-81
2024/01/12 07:39:03;;;;;;;8.25;6.03;;;;;;;;;;10495739;28;20040;-82
2024/01/12 07:44:31;;;;;;;10.95;7.35;;;;;;;;;;10453615;28;20068;-81
2024/01/12 07:50:33;;;;;;;8.52;5.97;;;;;;;;;;10444122;28;20056;-82
2024/01/12 07:55:56;;;;;;;9.23;5.85;;;;;;;;;;10363287;28;20124;-82
2024/01/12 08:01:24;;;;;;;8.57;5.95;;;;;;;;;;10442573;28;20040;-82
2024/01/12 08:06:25;;;;;;;10.98;6.85;;;;;;;;;;10509584;28;20067;-81
2024/01/12 08:11:26;;;;;;;;;;;;;;;;;;10518968;28;20064;-82
2024/01/12 08:16:51;;;;;;;12.50;8.27;;;;;;;;;;10547129;28;20418;-81
2024/01/12 08:22:05;;;;;;;15.27;9.23;;;;;;;;;;10564159;28;20040;-81
2024/01/12 08:33:25;;;;;;;10.40;6.85;;;;;;;;;;10337837;28;20034;-83
2024/01/12 08:44:25;;;;;;;10.07;6.53;;;;;;;;;;10232211;29;20036;-83
2024/01/12 09:46:57;;;;;;;11.77;5.72;;;;;;;;;;10392946;28;20582;-86
2024/01/12 10:20:15;;;;;;;9.50;5.82;;;;;;;;;;10557130;28;20083;-85
2024/01/12 10:31:10;;;;;;;14.07;7.80;;;;;;;;;;10553859;28;20032;-84
2024/01/12 10:36:30;;;;;;;8.05;4.97;;;;;;;;;;10571422;28;20051;-86
2024/01/12 10:41:54;;;;;;;7.10;3.42;;;;;;;;;;10578258;28;20063;-85
2024/01/12 10:58:22;;;;;;;9.52;5.57;;;;;;;;;;10594421;28;20028;-86
2024/01/12 11:15:09;;;;;;;8.55;3.60;;;;;;;;;;10591358;28;20036;-86
2024/01/12 11:26:28;;;;;;;9.98;6.15;;;;;;;;;;10598644;28;20040;-86
2024/01/12 12:00:47;;;;;;;11.18;7.20;;;;;;;;;;10598216;28;20550;-86
2024/01/12 12:40:27;;;;;;;10.10;5.90;;;;;;;;;;10520768;28;20028;-87
2024/01/12 12:46:06;;;;;;;13.43;8.35;;;;;;;;;;10563923;28;20443;-86
2024/01/12 12:51:58;;;;;;;14.05;7.50;;;;;;;;;;10428007;28;20044;-85
2024/01/12 12:57:19;;;;;;;12.32;7.35;;;;;;;;;;10454702;22;20437;-80
2024/01/12 13:02:20;;;;;;;11.13;7.10;;;;;;;;;;10496212;28;20100;-82
2024/01/12 13:07:21;;;;;;;12.57;7.82;;;;;;;;;;10498902;28;20484;-81
2024/01/12 13:12:22;;;;;;;13.70;7.78;;;;;;;;;;10497013;28;20060;-83
2024/01/12 13:17:24;;;;;;;10.57;6.72;;;;;;;;;;10493501;28;20127;-80
2024/01/12 13:22:30;;;;;;;13.77;8.30;;;;;;;;;;10493750;28;20039;-81
2024/01/12 13:27:31;;;;;;;11.15;7.45;;;;;;;;;;10499717;28;20052;-81
2024/01/12 13:32:33;;;;;;;13.80;8.60;;;;;;;;;;10511842;28;20047;-82
2024/01/12 13:37:34;;;;;;;15.00;9.43;;;;;;;;;;10493696;28;20477;-82
2024/01/12 13:42:37;;;;;;;13.82;8.38;;;;;;;;;;10495534;28;20132;-82
2024/01/12 13:47:39;;;;;;;15.27;9.68;;;;;;;;;;10513411;28;20024;-82
2024/01/12 13:52:40;;;;;;;14.27;8.43;;;;;;;;;;10494285;28;20032;-82
2024/01/12 13:57:41;;;;;;;12.70;7.63;;;;;;;;;;10511703;28;20045;-80
2024/01/12 14:02:42;;;;;;;9.80;7.32;;;;;;;;;;10495477;28;20063;-81
2024/01/12 14:07:43;;;;;;;12.95;7.90;;;;;;;;;;10494547;28;20044;-79
2024/01/12 14:12:44;;;;;;;11.55;6.28;;;;;;;;;;10495723;28;20041;-81
2024/01/12 14:17:45;;;;;;;10.57;7.20;;;;;;;;;;10492105;28;20032;-81
2024/01/12 14:22:46;;;;;;;11.15;8.32;;;;;;;;;;10491720;28;20511;-80
2024/01/12 14:27:47;;;;;;;14.65;8.73;;;;;;;;;;10492160;28;20032;-81
2024/01/12 14:32:48;;;;;;;;;;;;;;;;;;10493248;28;20048;-80
2024/01/12 14:37:50;;;;;;;11.00;6.45;;;;;;;;;;10490489;28;19904;-79
2024/01/12 14:42:51;;;;;;;12.48;7.55;;;;;;;;;;10510778;28;20040;-80
2024/01/12 14:47:52;;;;;;;14.40;7.90;;;;;;;;;;10502160;28;20031;-82
2024/01/12 14:52:53;;;;;;;10.13;7.20;;;;;;;;;;10511169;28;20032;-82
2024/01/12 14:57:54;;;;;;;14.45;6.90;;;;;;;;;;10491889;28;20131;-81
2024/01/12 15:02:55;;;;;;;13.07;8.07;;;;;;;;;;10504902;28;20036;-81
2024/01/12 15:07:56;;;;;;;14.20;9.38;;;;;;;;;;10514011;28;20043;-81
2024/01/12 15:12:57;;;;;;;;;;;;;;;;;;10525080;28;20021;-81
2024/01/12 15:17:58;;;;;;;16.40;8.98;;;;;;;;;;10538480;28;19897;-79
2024/01/12 15:22:59;;;;;;;13.02;8.65;;;;;;;;;;10537530;28;20024;-80
2024/01/12 15:28:00;;;;;;;11.95;7.80;;;;;;;;;;10535654;28;20052;-80
2024/01/12 15:33:01;;;;;;;11.75;8.15;;;;;;;;;;10495363;28;20151;-81
2024/01/12 15:38:02;;;;;;;12.30;8.35;;;;;;;;;;10494336;28;20108;-79
2024/01/12 15:43:04;;;;;;;12.05;7.80;;;;;;;;;;10493020;28;20105;-78
2024/01/12 15:48:05;;;;;;;;;;;;;;;;;;10528674;28;20042;-79
2024/01/12 15:53:06;;;;;;;20.27;12.63;;;;;;;;;;10497007;28;19915;-79
2024/01/12 15:58:07;;;;;;;16.08;10.77;;;;;;;;;;10492370;28;20072;-79
2024/01/12 16:03:08;;;;;;;24.90;16.02;;;;;;;;;;10502468;28;20066;-79
2024/01/12 16:08:09;;;;;;;22.27;12.80;;;;;;;;;;10489197;28;20029;-79
2024/01/12 16:13:10;;;;;;;14.05;9.85;;;;;;;;;;10490515;28;20036;-80
2024/01/12 16:18:11;;;;;;;14.25;9.57;;;;;;;;;;10489803;28;20028;-80
2024/01/12 16:23:12;;;;;;;;;;;;;;;;;;10490941;28;20035;-79
2024/01/12 16:28:13;;;;;;;12.82;8.98;;;;;;;;;;10490330;28;19972;-78
2024/01/12 16:33:14;;;;;;;13.15;9.32;;;;;;;;;;10490205;28;20037;-78
2024/01/12 16:38:15;;;;;;;13.18;8.90;;;;;;;;;;10506877;28;20059;-79
2024/01/12 16:43:16;;;;;;;15.80;11.35;;;;;;;;;;10490768;28;20058;-78
2024/01/12 16:48:17;;;;;;;23.23;17.70;;;;;;;;;;10491130;28;20066;-78
2024/01/12 16:53:20;;;;;;;15.65;10.55;;;;;;;;;;10491366;28;20210;-78
2024/01/12 16:58:21;;;;;;;14.73;9.38;;;;;;;;;;10490091;28;20051;-78
2024/01/12 17:03:22;;;;;;;17.42;11.45;;;;;;;;;;10487161;28;20139;-78
2024/01/12 17:08:23;;;;;;;16.38;10.70;;;;;;;;;;10488110;28;20036;-78
2024/01/12 17:13:24;;;;;;;;;;;;;;;;;;10489538;28;20416;-79
2024/01/12 17:18:25;;;;;;;11.23;8.32;;;;;;;;;;10491990;28;19911;-78
2024/01/12 17:23:27;;;;;;;15.65;10.73;;;;;;;;;;10496978;28;20139;-77
2024/01/12 17:28:27;;;;;;;;;;;;;;;;;;10511143;28;20135;-80
2024/01/12 17:33:28;;;;;;;19.25;12.48;;;;;;;;;;10491475;28;19937;-80
2024/01/12 17:38:29;;;;;;;17.00;12.45;;;;;;;;;;10491170;28;20056;-80
2024/01/12 17:43:31;;;;;;;15.52;11.40;;;;;;;;;;10491961;28;20127;-81
2024/01/12 17:48:32;;;;;;;;;;;;;;;;;;10493163;28;20032;-81
2024/01/12 17:53:33;;;;;;;18.08;13.25;;;;;;;;;;10494430;28;19969;-81
2024/01/12 17:58:34;;;;;;;18.02;12.90;;;;;;;;;;10511348;28;20549;-81
2024/01/12 18:03:35;;;;;;;15.55;11.77;;;;;;;;;;10489537;28;20040;-79
2024/01/12 18:08:36;;;;;;;20.33;15.23;;;;;;;;;;10491658;28;20103;-79
2024/01/12 18:13:37;;;;;;;15.43;11.38;;;;;;;;;;10489011;28;20515;-80
2024/01/12 18:18:38;;;;;;;;;;;;;;;;;;10506901;28;20408;-80
2024/01/12 18:23:39;;;;;;;16.20;12.10;;;;;;;;;;10506412;28;19991;-80
2024/01/12 18:28:40;;;;;;;17.95;12.07;;;;;;;;;;10491435;28;20104;-81
2024/01/12 18:33:41;;;;;;;15.57;11.10;;;;;;;;;;10492212;28;20079;-81
2024/01/12 18:38:42;;;;;;;16.00;11.15;;;;;;;;;;10493341;28;20040;-82
2024/01/12 18:43:43;;;;;;;16.63;12.13;;;;;;;;;;10493282;28;20033;-80
2024/01/12 18:48:45;;;;;;;17.25;11.52;;;;;;;;;;10504673;28;20123;-80
2024/01/12 18:53:46;;;;;;;18.10;12.77;;;;;;;;;;10485005;28;20489;-80
